createdAt,value
2023-03-11T00:04:51.198Z,1003.95
2023-03-11T00:09:52.398Z,1003.93
2023-03-11T00:14:53.591Z,1003.88
2023-03-11T00:19:54.727Z,1003.99
2023-03-11T00:24:55.863Z,1004.23
2023-03-11T00:29:57.037Z,1004.28
2023-03-11T00:34:59.231Z,1004.35
2023-03-11T00:39:58.403Z,1004.45
2023-03-11T00:44:59.540Z,1004.33
2023-03-11T00:49:59.700Z,1004.34
2023-03-11T00:55:00.870Z,1004.19
2023-03-11T01:00:03.005Z,1004.21
2023-03-11T01:05:02.133Z,1004.10
2023-03-11T01:10:03.297Z,1004.04
2023-03-11T01:15:04.517Z,1004.12
2023-03-11T01:20:05.652Z,1004.11
2023-03-11T01:25:18.763Z,1004.13
2023-03-11T01:30:07.875Z,1004.02
2023-03-11T01:35:09.005Z,1004.03
2023-03-11T01:40:11.129Z,1004.11
2023-03-11T01:45:10.302Z,1004.18
2023-03-11T01:50:11.452Z,1004.04
2023-03-11T01:55:12.637Z,1004.19
2023-03-11T02:00:13.824Z,1004.17
2023-03-11T02:05:14.964Z,1004.01
2023-03-11T02:10:16.102Z,1004.05
2023-03-11T02:15:17.560Z,1003.80
2023-03-11T02:20:16.756Z,1003.88
2023-03-11T02:25:19.036Z,1003.90
2023-03-11T02:30:20.363Z,1003.99
2023-03-11T02:35:19.487Z,1004.09
2023-03-11T02:40:21.700Z,1004.27
2023-03-11T02:45:20.832Z,1003.92
2023-03-11T02:50:23.007Z,1003.75
2023-03-11T02:55:23.181Z,1004.00
2023-03-11T03:00:22.387Z,1004.03
2023-03-11T03:05:24.542Z,1004.07
2023-03-11T03:10:23.698Z,1004.14
2023-03-11T03:15:24.817Z,1004.19
2023-03-11T03:20:25.986Z,1004.30
2023-03-11T03:25:27.138Z,1004.43
2023-03-11T03:30:28.316Z,1004.34
2023-03-11T03:35:29.552Z,1004.29
2023-03-11T03:40:30.682Z,1004.30
2023-03-11T03:45:31.843Z,1004.41
2023-03-11T03:50:33.026Z,1004.35
2023-03-11T03:55:34.204Z,1004.17
2023-03-11T04:00:35.382Z,1004.03
2023-03-11T04:05:37.580Z,1004.07
2023-03-11T04:10:37.023Z,1004.04
2023-03-11T04:15:38.195Z,1004.26
2023-03-11T04:20:39.386Z,1004.25
2023-03-11T04:25:41.526Z,1004.21
2023-03-11T04:30:40.685Z,1004.07
2023-03-11T04:35:41.837Z,1004.34
2023-03-11T04:40:43.004Z,1004.30
2023-03-11T04:45:44.149Z,1004.30
2023-03-11T04:50:45.371Z,1004.36
2023-03-11T04:55:46.488Z,1004.31
2023-03-11T05:00:47.596Z,1004.26
2023-03-11T05:05:48.790Z,1004.28
2023-03-11T05:10:49.923Z,1004.34
2023-03-11T05:15:51.095Z,1004.40
2023-03-11T05:20:52.249Z,1004.39
2023-03-11T05:25:53.394Z,1004.57
2023-03-11T05:30:54.572Z,1004.63
2023-03-11T05:35:57.693Z,1004.84
2023-03-11T05:40:56.875Z,1004.88
2023-03-11T05:46:17.017Z,1004.97
2023-03-11T05:50:59.128Z,1004.90
2023-03-11T05:55:58.303Z,1004.86
2023-03-11T06:00:59.431Z,1004.84
2023-03-11T06:06:00.578Z,1004.83
2023-03-11T06:11:01.745Z,1004.86
2023-03-11T06:16:02.950Z,1004.73
2023-03-11T06:21:05.122Z,1004.77
2023-03-11T06:26:04.313Z,1004.82
2023-03-11T06:31:05.442Z,1004.89
2023-03-11T06:36:06.623Z,1004.99
2023-03-11T06:41:07.842Z,1005.00
2023-03-11T06:46:09.035Z,1005.10
2023-03-11T06:51:10.285Z,1005.01
2023-03-11T06:56:11.449Z,1005.02
2023-03-11T07:01:12.724Z,1005.18
2023-03-11T07:06:17.803Z,1005.28
2023-03-11T07:11:14.968Z,1005.38
2023-03-11T07:16:16.769Z,1005.47
2023-03-11T07:21:16.537Z,1005.56
2023-03-11T07:26:15.734Z,1005.67
2023-03-11T07:31:16.933Z,1005.83
2023-03-11T07:36:18.662Z,1005.81
2023-03-11T07:41:18.396Z,1005.86
2023-03-11T07:46:17.717Z,1005.82
2023-03-11T07:51:17.884Z,1005.85
2023-03-11T07:56:19.077Z,1005.96
2023-03-11T08:01:20.228Z,1005.88
2023-03-11T08:06:21.396Z,1005.86
2023-03-11T08:11:22.552Z,1005.89
2023-03-11T08:16:23.700Z,1005.87
2023-03-11T08:21:24.879Z,1005.76
2023-03-11T08:26:26.086Z,1005.72
2023-03-11T08:31:28.340Z,1005.84
2023-03-11T08:36:27.553Z,1005.96
2023-03-11T08:41:29.796Z,1006.08
2023-03-11T08:46:29.030Z,1006.22
2023-03-11T08:51:30.273Z,1006.27
2023-03-11T08:56:31.383Z,1006.34
2023-03-11T09:01:33.537Z,1006.37
2023-03-11T09:06:33.680Z,1006.43
2023-03-11T09:11:33.852Z,1006.50
2023-03-11T09:16:33.004Z,1006.48
2023-03-11T09:21:35.117Z,1006.55
2023-03-11T09:26:34.271Z,1006.66
2023-03-11T09:31:35.517Z,1006.69
2023-03-11T09:36:37.702Z,1006.73
2023-03-11T09:41:47.935Z,1006.82
2023-03-11T09:46:38.902Z,1006.83
2023-03-11T09:51:38.077Z,1006.89
2023-03-11T09:56:39.207Z,1006.87
2023-03-11T10:01:40.384Z,1006.98
2023-03-11T10:06:41.568Z,1007.06
2023-03-11T10:11:43.770Z,1007.01
2023-03-11T10:16:42.962Z,1007.15
2023-03-11T10:21:44.078Z,1007.20
2023-03-11T10:26:45.327Z,1007.27
2023-03-11T10:31:48.647Z,1007.34
2023-03-11T10:36:47.767Z,1007.27
2023-03-11T10:41:48.867Z,1007.21
2023-03-11T10:46:50.006Z,1007.15
2023-03-11T10:51:51.152Z,1007.19
2023-03-11T10:56:53.309Z,1007.12
2023-03-11T11:01:52.477Z,1007.12
2023-03-11T11:06:53.624Z,1007.06
2023-03-11T11:11:54.863Z,1006.95
2023-03-11T11:16:57.060Z,1006.91
2023-03-11T11:21:56.231Z,1007.03
2023-03-11T11:26:57.356Z,1007.04
2023-03-11T11:31:59.493Z,1007.00
2023-03-11T11:36:58.630Z,1006.96
2023-03-11T11:41:59.761Z,1006.91
2023-03-11T11:47:06.997Z,1007.02
2023-03-11T11:52:02.147Z,1006.89
2023-03-11T11:57:03.347Z,1006.91
2023-03-11T12:02:04.497Z,1006.73
2023-03-11T12:07:05.632Z,1006.66
2023-03-11T12:12:08.713Z,1006.63
2023-03-11T12:17:07.867Z,1006.58
2023-03-11T12:22:08.972Z,1006.57
2023-03-11T12:27:10.126Z,1006.49
2023-03-11T12:32:12.250Z,1006.51
2023-03-11T12:37:11.694Z,1006.54
2023-03-11T12:42:12.901Z,1006.35
2023-03-11T12:47:15.020Z,1006.32
2023-03-11T12:52:15.252Z,1006.33
2023-03-11T12:57:14.480Z,1006.26
2023-03-11T13:02:16.702Z,1006.07
2023-03-11T13:07:15.850Z,1006.17
2023-03-11T13:12:19.075Z,1006.24
2023-03-11T13:17:19.292Z,1006.20
2023-03-11T13:22:18.441Z,1006.29
2023-03-11T13:27:19.625Z,1006.27
2023-03-11T13:32:21.091Z,1006.40
2023-03-11T13:37:23.207Z,1006.34
2023-03-11T13:42:23.409Z,1006.28
2023-03-11T13:47:22.515Z,1006.13
2023-03-11T13:52:24.454Z,1006.20
2023-03-11T13:57:23.632Z,1006.33
2023-03-11T14:02:24.774Z,1006.34
2023-03-11T14:07:25.975Z,1006.39
2023-03-11T14:12:27.207Z,1006.34
2023-03-11T14:17:28.336Z,1006.39
2023-03-11T14:22:36.498Z,1006.41
2023-03-11T14:27:29.805Z,1006.49
2023-03-11T14:32:32.159Z,1006.55
2023-03-11T14:37:31.363Z,1006.45
2023-03-11T14:42:33.540Z,1006.45
2023-03-11T14:47:32.662Z,1006.53
2023-03-11T14:52:33.789Z,1006.60
2023-03-11T14:57:34.902Z,1006.63
2023-03-11T15:02:39.052Z,1006.62
2023-03-11T15:07:36.279Z,1006.66
2023-03-11T15:12:38.488Z,1006.65
2023-03-11T15:17:44.209Z,1006.71
2023-03-11T15:22:38.590Z,1006.72
2023-03-11T15:27:37.969Z,1006.76
2023-03-11T15:32:40.318Z,1006.77
2023-03-11T15:37:40.611Z,1006.87
2023-03-11T15:42:40.720Z,1006.85
2023-03-11T15:47:41.164Z,1006.93
2023-03-11T15:52:41.303Z,1006.87
2023-03-11T15:57:41.472Z,1006.88
2023-03-11T16:02:40.563Z,1006.79
2023-03-11T16:07:41.763Z,1006.75
2023-03-11T16:12:42.928Z,1006.73
2023-03-11T16:17:49.626Z,1006.69
2023-03-11T16:22:45.185Z,1006.78
2023-03-11T16:27:47.347Z,1006.81
2023-03-11T16:32:46.626Z,1006.80
2023-03-11T16:37:48.811Z,1006.90
2023-03-11T16:42:47.970Z,1006.98
2023-03-11T16:47:49.381Z,1007.11
2023-03-11T16:52:49.004Z,1007.26
2023-03-11T16:57:49.167Z,1007.39
2023-03-11T17:02:49.596Z,1007.47
2023-03-11T17:07:49.038Z,1007.61
2023-03-11T17:12:48.516Z,1007.69
2023-03-11T17:17:49.003Z,1007.72
2023-03-11T17:22:48.172Z,1007.78
2023-03-11T17:27:49.283Z,1007.91
2023-03-11T17:32:51.700Z,1008.07
2023-03-11T17:37:51.972Z,1008.09
2023-03-11T17:42:52.473Z,1008.31
2023-03-11T17:47:52.043Z,1008.39
2023-03-11T17:52:53.544Z,1008.41
2023-03-11T17:57:51.985Z,1008.51
2023-03-11T18:02:51.236Z,1008.51
2023-03-11T18:07:52.607Z,1008.50
2023-03-11T18:12:53.930Z,1008.55
2023-03-11T18:17:55.229Z,1008.64
2023-03-11T18:22:56.731Z,1008.71
2023-03-11T18:27:56.650Z,1008.74
2023-03-11T18:32:56.251Z,1008.89
2023-03-11T18:37:55.769Z,1008.91
2023-03-11T18:42:55.258Z,1009.02
2023-03-11T18:47:56.899Z,1009.02
2023-03-11T18:52:56.482Z,1009.10
2023-03-11T18:57:55.963Z,1009.07
2023-03-11T19:03:01.934Z,1009.14
2023-03-11T19:07:54.472Z,1009.19
2023-03-11T19:12:57.008Z,1009.24
2023-03-11T19:18:06.309Z,1009.27
2023-03-11T19:22:56.832Z,1009.35
2023-03-11T19:27:57.175Z,1009.33
2023-03-11T19:32:56.769Z,1009.28
2023-03-11T19:37:57.303Z,1009.42
2023-03-11T19:42:56.818Z,1009.48
2023-03-11T19:47:58.370Z,1009.54
2023-03-11T19:52:58.774Z,1009.61
2023-03-11T19:57:58.297Z,1009.64
2023-03-11T20:02:59.746Z,1009.69
2023-03-11T20:07:59.427Z,1009.70
2023-03-11T20:13:02.423Z,1009.72
2023-03-11T20:18:00.155Z,1009.71
2023-03-11T20:23:01.711Z,1009.77
2023-03-11T20:28:02.070Z,1009.80
2023-03-11T20:33:03.205Z,1009.82
2023-03-11T20:38:02.795Z,1009.84
2023-03-11T20:43:02.815Z,1009.96
2023-03-11T20:48:02.273Z,1010.03
2023-03-11T20:53:01.602Z,1010.15
2023-03-11T20:58:03.054Z,1010.19
2023-03-11T21:03:02.524Z,1010.17
2023-03-11T21:08:04.871Z,1010.24
2023-03-11T21:13:04.162Z,1010.16
2023-03-11T21:18:05.466Z,1010.21
2023-03-11T21:23:06.963Z,1010.25
2023-03-11T21:28:06.227Z,1010.29
2023-03-11T21:33:06.530Z,1010.32
2023-03-11T21:38:08.080Z,1010.38
2023-03-11T21:43:07.313Z,1010.42
2023-03-11T21:48:08.517Z,1010.47
2023-03-11T21:53:09.861Z,1010.52
2023-03-11T21:58:11.089Z,1010.56
2023-03-11T22:03:12.376Z,1010.51
2023-03-11T22:08:13.623Z,1010.55
2023-03-11T22:13:14.892Z,1010.55
2023-03-11T22:18:16.063Z,1010.60
2023-03-11T22:23:19.604Z,1010.57
2023-03-11T22:28:16.820Z,1010.61
2023-03-11T22:33:18.015Z,1010.63
2023-03-11T22:38:19.170Z,1010.66
2023-03-11T22:43:20.432Z,1010.66
2023-03-11T22:48:22.605Z,1010.68
2023-03-11T22:53:21.811Z,1010.71
2023-03-11T22:58:23.000Z,1010.77
2023-03-11T23:03:24.494Z,1010.80
2023-03-11T23:08:24.674Z,1010.81
2023-03-11T23:13:24.150Z,1010.83
2023-03-11T23:18:23.299Z,1010.86
2023-03-11T23:23:24.639Z,1010.90
2023-03-11T23:28:25.768Z,1010.96
2023-03-11T23:33:26.947Z,1010.92
2023-03-11T23:38:28.083Z,1010.99
2023-03-11T23:43:29.597Z,1010.97
2023-03-11T23:48:28.707Z,1010.96
2023-03-11T23:53:29.907Z,1010.96
2023-03-11T23:58:31.033Z,1010.95
